createdAt,value
2018-03-27T00:00:07.034Z,42.60
2018-03-27T00:02:34.572Z,40.77
2018-03-27T00:05:02.081Z,40.80
2018-03-27T00:07:29.586Z,39.53
2018-03-27T00:09:57.139Z,39.47
2018-03-27T00:12:24.650Z,41.80
2018-03-27T00:14:52.192Z,38.57
2018-03-27T00:17:19.682Z,39.70
2018-03-27T00:19:47.194Z,38.25
2018-03-27T00:22:15.466Z,42.58
2018-03-27T00:24:43.778Z,39.13
2018-03-27T00:27:10.825Z,41.30
2018-03-27T00:29:50.054Z,39.63
2018-03-27T00:32:29.417Z,38.72
2018-03-27T00:35:08.841Z,39.88
2018-03-27T00:37:48.827Z,41.20
2018-03-27T00:40:28.097Z,39.58
2018-03-27T00:42:56.490Z,38.58
2018-03-27T00:45:23.995Z,40.45
2018-03-27T00:47:51.517Z,40.03
2018-03-27T00:50:19.820Z,40.72
2018-03-27T00:52:47.330Z,42.58
2018-03-27T00:55:14.871Z,40.47
2018-03-27T00:57:43.151Z,42.15
2018-03-27T01:00:11.442Z,42.95
2018-03-27T01:02:38.968Z,38.13
2018-03-27T01:05:09.337Z,39.95
2018-03-27T01:07:36.888Z,39.85
2018-03-27T01:10:04.408Z,37.55
2018-03-27T01:12:31.958Z,40.78
2018-03-27T01:14:59.469Z,39.13
2018-03-27T01:17:27.014Z,38.20
2018-03-27T01:19:55.291Z,37.00
2018-03-27T01:22:23.576Z,36.95
2018-03-27T01:24:51.113Z,36.40
2018-03-27T01:27:19.422Z,37.08
2018-03-27T01:29:46.934Z,37.05
2018-03-27T01:32:14.447Z,36.03
2018-03-27T01:34:41.977Z,36.95
2018-03-27T01:37:10.238Z,37.97
2018-03-27T01:39:38.557Z,37.70
2018-03-27T01:42:06.067Z,38.22
2018-03-27T01:44:33.586Z,40.38
2018-03-27T01:47:01.102Z,38.38
2018-03-27T01:49:29.358Z,39.88
2018-03-27T01:51:56.877Z,39.30
2018-03-27T01:54:24.365Z,39.83
2018-03-27T01:56:51.894Z,39.75
2018-03-27T01:59:20.156Z,42.67
2018-03-27T02:01:47.715Z,45.15
2018-03-27T02:04:15.214Z,46.85
2018-03-27T02:06:42.749Z,46.28
2018-03-27T02:09:10.259Z,43.22
2018-03-27T02:11:44.306Z,42.90
2018-03-27T02:14:17.612Z,42.40
2018-03-27T02:16:50.774Z,42.30
2018-03-27T02:19:23.923Z,42.65
2018-03-27T02:21:50.964Z,41.83
2018-03-27T02:24:19.946Z,42.05
2018-03-27T02:26:47.444Z,42.83
2018-03-27T02:29:15.762Z,43.53
2018-03-27T02:31:43.255Z,41.58
2018-03-27T02:34:10.765Z,41.65
2018-03-27T02:36:38.267Z,44.30
2018-03-27T02:39:05.807Z,45.88
2018-03-27T02:41:33.300Z,46.65
2018-03-27T02:44:01.620Z,46.75
2018-03-27T02:46:30.003Z,45.05
2018-03-27T02:48:58.249Z,46.25
2018-03-27T02:51:25.776Z,47.13
2018-03-27T02:53:53.273Z,46.70
2018-03-27T02:56:20.838Z,48.03
2018-03-27T02:58:48.338Z,49.58
2018-03-27T03:01:15.865Z,47.28
2018-03-27T03:03:43.415Z,48.97
2018-03-27T03:06:10.920Z,49.45
2018-03-27T03:08:38.432Z,48.33
2018-03-27T03:11:05.963Z,49.10
2018-03-27T03:13:34.254Z,48.90
2018-03-27T03:16:02.603Z,51.20
2018-03-27T03:18:30.172Z,49.58
2018-03-27T03:20:57.702Z,50.00
2018-03-27T03:23:25.232Z,51.60
2018-03-27T03:25:52.768Z,54.33
2018-03-27T03:28:21.081Z,52.80
2018-03-27T03:30:49.325Z,50.83
2018-03-27T03:33:16.824Z,49.88
2018-03-27T03:35:44.361Z,51.72
2018-03-27T03:38:11.879Z,51.80
2018-03-27T03:40:39.411Z,51.67
2018-03-27T03:43:06.926Z,49.90
2018-03-27T03:45:34.464Z,49.80
2018-03-27T03:48:02.758Z,50.38
2018-03-27T03:50:30.313Z,51.55
2018-03-27T03:52:57.832Z,47.20
2018-03-27T03:55:25.344Z,52.03
2018-03-27T03:57:52.882Z,51.92
2018-03-27T04:00:21.182Z,51.10
2018-03-27T04:02:48.735Z,49.42
2018-03-27T04:05:16.263Z,54.42
2018-03-27T04:07:44.550Z,53.08
2018-03-27T04:10:12.852Z,49.88
2018-03-27T04:12:40.377Z,51.45
2018-03-27T04:15:08.684Z,50.90
2018-03-27T04:17:36.188Z,51.60
2018-03-27T04:20:03.750Z,49.92
2018-03-27T04:22:31.278Z,51.30
2018-03-27T04:24:58.818Z,50.15
2018-03-27T04:27:26.358Z,51.00
2018-03-27T04:29:54.684Z,51.97
2018-03-27T04:32:22.187Z,50.20
2018-03-27T04:34:50.486Z,50.70
2018-03-27T04:37:17.999Z,50.67
2018-03-27T04:39:45.537Z,49.92
2018-03-27T04:42:13.062Z,50.03
2018-03-27T04:44:40.591Z,50.15
2018-03-27T04:47:08.122Z,49.90
2018-03-27T04:49:35.655Z,50.63
2018-03-27T04:52:03.197Z,47.85
2018-03-27T04:54:30.706Z,48.90
2018-03-27T04:56:58.235Z,50.63
2018-03-27T04:59:25.800Z,51.25
2018-03-27T05:01:53.297Z,49.70
2018-03-27T05:04:20.818Z,53.75
2018-03-27T05:06:49.156Z,53.75
2018-03-27T05:09:17.463Z,52.47
2018-03-27T05:11:44.966Z,54.63
2018-03-27T05:14:12.513Z,52.53
2018-03-27T05:16:40.014Z,52.90
2018-03-27T05:19:07.566Z,50.47
2018-03-27T05:21:35.835Z,51.30
2018-03-27T05:24:04.135Z,54.20
2018-03-27T05:26:31.671Z,51.72
2018-03-27T05:28:59.180Z,50.55
2018-03-27T05:31:26.746Z,52.78
2018-03-27T05:33:54.248Z,53.75
2018-03-27T05:36:21.796Z,50.92
2018-03-27T05:38:49.324Z,48.25
2018-03-27T05:41:16.825Z,49.72
2018-03-27T05:43:44.364Z,52.97
2018-03-27T05:46:11.928Z,53.38
2018-03-27T05:48:40.252Z,52.55
2018-03-27T05:51:07.775Z,53.47
2018-03-27T05:53:36.060Z,52.40
2018-03-27T05:56:03.648Z,53.00
2018-03-27T05:58:31.148Z,53.55
2018-03-27T06:00:59.467Z,53.70
2018-03-27T06:03:26.990Z,53.58
2018-03-27T06:05:54.544Z,52.22
2018-03-27T06:08:22.095Z,51.17
2018-03-27T06:10:49.619Z,51.08
2018-03-27T06:13:17.180Z,51.72
2018-03-27T06:15:44.706Z,53.72
2018-03-27T06:18:12.266Z,52.03
2018-03-27T06:20:40.555Z,53.22
2018-03-27T06:23:08.100Z,55.65
2018-03-27T06:25:36.403Z,50.55
2018-03-27T06:28:03.910Z,54.15
2018-03-27T06:30:31.442Z,52.25
2018-03-27T06:32:59.017Z,51.00
2018-03-27T06:35:26.556Z,54.20
2018-03-27T06:37:54.077Z,52.42
2018-03-27T06:40:22.384Z,53.20
2018-03-27T06:42:49.910Z,54.25
2018-03-27T06:45:18.198Z,51.72
2018-03-27T06:47:45.793Z,51.08
2018-03-27T06:50:13.304Z,50.85
2018-03-27T06:52:40.852Z,51.28
2018-03-27T06:55:09.150Z,48.55
2018-03-27T06:57:36.658Z,50.97
2018-03-27T07:00:04.201Z,51.03
2018-03-27T07:02:31.759Z,49.95
2018-03-27T07:04:59.300Z,50.00
2018-03-27T07:07:26.831Z,48.90
2018-03-27T07:09:55.096Z,47.72
2018-03-27T07:12:23.396Z,48.97
2018-03-27T07:14:50.952Z,48.78
2018-03-27T07:17:19.321Z,45.70
2018-03-27T07:19:47.605Z,47.70
2018-03-27T07:22:15.117Z,46.78
2018-03-27T07:24:42.648Z,46.97
2018-03-27T07:27:10.183Z,47.13
2018-03-27T07:35:25.491Z,46.00
2018-03-27T07:37:53.013Z,45.90
2018-03-27T07:40:20.540Z,43.38
2018-03-27T07:42:48.061Z,44.17
2018-03-27T07:45:16.343Z,44.72
2018-03-27T07:47:43.871Z,45.28
2018-03-27T07:50:11.395Z,45.38
2018-03-27T07:52:38.924Z,43.42
2018-03-27T07:55:06.452Z,43.05
2018-03-27T07:57:34.002Z,43.78
2018-03-27T08:00:01.510Z,45.73
2018-03-27T08:02:29.015Z,43.37
2018-03-27T08:04:56.523Z,46.40
2018-03-27T08:07:24.054Z,44.83
2018-03-27T08:09:52.349Z,43.00
2018-03-27T08:12:19.905Z,43.80
2018-03-27T08:14:48.191Z,42.40
2018-03-27T08:17:15.683Z,43.60
2018-03-27T08:19:43.190Z,43.10
2018-03-27T08:22:10.698Z,43.10
2018-03-27T08:24:38.233Z,42.33
2018-03-27T08:27:05.765Z,43.63
2018-03-27T08:29:34.045Z,43.43
2018-03-27T08:32:02.360Z,42.90
2018-03-27T08:34:29.870Z,43.77
2018-03-27T08:36:58.203Z,42.90
2018-03-27T08:39:25.706Z,42.50
2018-03-27T08:41:54.006Z,41.50
2018-03-27T08:44:21.552Z,40.93
2018-03-27T08:46:49.833Z,41.30
2018-03-27T08:49:18.144Z,42.50
2018-03-27T08:51:45.655Z,42.50
2018-03-27T08:54:13.977Z,45.07
2018-03-27T08:56:41.496Z,43.90
2018-03-27T08:59:09.824Z,42.50
2018-03-27T09:01:37.359Z,43.87
2018-03-27T09:04:04.878Z,45.57
2018-03-27T09:06:32.371Z,42.30
2018-03-27T09:08:59.891Z,44.90
2018-03-27T09:11:27.384Z,44.30
2018-03-27T09:13:54.918Z,40.73
2018-03-27T09:16:22.413Z,42.30
2018-03-27T09:18:49.930Z,43.80
2018-03-27T09:21:17.473Z,42.43
2018-03-27T09:23:44.974Z,41.27
2018-03-27T09:26:12.470Z,41.30
2018-03-27T09:28:40.026Z,41.83
2018-03-27T09:31:07.530Z,39.90
2018-03-27T09:33:35.832Z,39.13
2018-03-27T09:36:03.347Z,39.00
2018-03-27T09:38:30.922Z,39.57
2018-03-27T09:40:58.454Z,38.30
2018-03-27T09:43:25.977Z,38.00
2018-03-27T09:45:53.510Z,33.70
2018-03-27T09:48:21.783Z,33.17
2018-03-27T09:50:50.089Z,31.63
2018-03-27T09:53:17.605Z,28.97
2018-03-27T09:55:45.911Z,26.70
2018-03-27T09:58:13.425Z,27.67
2018-03-27T10:00:46.795Z,25.43
2018-03-27T10:03:14.349Z,26.27
2018-03-27T10:05:41.904Z,27.70
2018-03-27T10:08:09.439Z,26.80
2018-03-27T10:10:37.700Z,25.80
2018-03-27T10:13:06.117Z,24.97
2018-03-27T10:15:33.648Z,23.43
2018-03-27T10:18:01.992Z,23.47
2018-03-27T10:20:29.515Z,22.03
2018-03-27T10:22:57.050Z,24.83
2018-03-27T10:25:24.572Z,24.60
2018-03-27T10:27:52.167Z,24.30
2018-03-27T10:30:19.633Z,21.47
2018-03-27T10:32:47.179Z,18.93
2018-03-27T10:35:15.485Z,19.73
2018-03-27T10:37:43.015Z,18.83
2018-03-27T10:40:11.334Z,19.53
2018-03-27T10:42:39.797Z,19.90
2018-03-27T10:45:07.324Z,19.50
2018-03-27T10:47:35.591Z,19.10
2018-03-27T10:50:03.102Z,19.10
2018-03-27T10:52:30.614Z,17.87
2018-03-27T10:54:58.916Z,17.80
2018-03-27T10:57:26.436Z,19.07
2018-03-27T10:59:54.720Z,20.30
2018-03-27T11:02:23.055Z,18.97
2018-03-27T11:04:50.574Z,18.60
2018-03-27T11:07:18.114Z,18.93
2018-03-27T11:09:46.450Z,18.50
2018-03-27T11:12:13.977Z,19.00
2018-03-27T11:14:41.531Z,19.27
2018-03-27T11:17:09.067Z,19.37
2018-03-27T11:19:36.583Z,18.07
2018-03-27T11:22:04.143Z,18.60
2018-03-27T11:24:31.654Z,18.17
2018-03-27T11:26:59.983Z,19.17
2018-03-27T11:29:27.573Z,20.67
2018-03-27T11:31:55.039Z,20.23
2018-03-27T11:34:22.567Z,20.63
2018-03-27T11:36:50.089Z,20.50
2018-03-27T11:39:17.617Z,20.60
2018-03-27T11:41:45.892Z,19.23
2018-03-27T11:44:13.428Z,21.60
2018-03-27T11:46:40.930Z,21.33
2018-03-27T11:49:08.455Z,20.93
2018-03-27T11:51:35.983Z,20.30
2018-03-27T11:54:03.532Z,19.43
2018-03-27T11:56:31.049Z,19.33
2018-03-27T11:58:58.796Z,18.53
2018-03-27T12:01:26.377Z,19.37
2018-03-27T12:03:53.903Z,19.33
2018-03-27T12:06:21.447Z,18.60
2018-03-27T12:08:48.982Z,17.70
2018-03-27T12:11:16.466Z,17.30
2018-03-27T12:13:44.009Z,17.03
2018-03-27T12:16:11.534Z,16.93
2018-03-27T12:18:39.861Z,16.90
2018-03-27T12:21:07.377Z,16.37
2018-03-27T12:23:34.958Z,17.40
2018-03-27T12:26:02.500Z,17.03
2018-03-27T12:28:30.025Z,17.60
2018-03-27T12:30:57.540Z,16.20
2018-03-27T12:33:25.091Z,17.07
2018-03-27T12:35:52.590Z,17.10
2018-03-27T12:38:20.098Z,17.07
2018-03-27T12:40:47.668Z,16.13
2018-03-27T12:43:15.200Z,16.80
2018-03-27T12:45:42.711Z,15.80
2018-03-27T12:48:10.273Z,17.37
2018-03-27T12:50:37.777Z,15.03
2018-03-27T12:53:05.322Z,15.73
2018-03-27T12:55:33.610Z,15.47
2018-03-27T12:58:01.941Z,16.10
2018-03-27T13:00:29.474Z,16.90
2018-03-27T13:02:57.003Z,15.93
2018-03-27T13:05:25.309Z,16.53
2018-03-27T13:10:25.020Z,16.03
2018-03-27T13:12:52.532Z,16.27
2018-03-27T13:15:20.039Z,16.93
2018-03-27T13:17:47.675Z,16.20
2018-03-27T13:20:15.954Z,16.70
2018-03-27T13:22:44.265Z,18.23
2018-03-27T13:25:11.813Z,17.30
2018-03-27T13:27:39.330Z,18.00
2018-03-27T13:30:06.851Z,16.30
2018-03-27T13:32:34.358Z,17.27
2018-03-27T13:35:02.680Z,18.17
2018-03-27T13:37:30.224Z,17.27
2018-03-27T13:39:57.733Z,17.53
2018-03-27T13:42:25.253Z,18.03
2018-03-27T13:44:52.775Z,19.20
2018-03-27T13:47:21.039Z,17.37
2018-03-27T13:49:49.351Z,16.90
2018-03-27T13:52:16.874Z,16.77
2018-03-27T13:54:44.440Z,17.40
2018-03-27T13:57:12.729Z,18.00
2018-03-27T13:59:41.010Z,16.97
2018-03-27T14:02:09.323Z,17.13
2018-03-27T14:04:36.853Z,16.20
2018-03-27T14:07:05.131Z,17.10
2018-03-27T14:09:32.836Z,17.80
2018-03-27T14:12:00.483Z,16.43
2018-03-27T14:14:28.147Z,16.53
2018-03-27T14:16:55.798Z,16.73
2018-03-27T14:19:23.438Z,17.80
2018-03-27T14:21:50.956Z,17.00
2018-03-27T14:24:18.496Z,16.40
2018-03-27T14:26:46.064Z,15.47
2018-03-27T14:29:13.730Z,17.13
2018-03-27T14:31:41.277Z,16.50
2018-03-27T14:34:08.895Z,18.10
2018-03-27T14:36:36.423Z,19.20
2018-03-27T14:39:20.590Z,17.80
2018-03-27T14:41:48.859Z,18.90
2018-03-27T14:44:17.146Z,20.10
2018-03-27T14:46:45.494Z,19.93
2018-03-27T14:49:12.973Z,18.33
2018-03-27T14:51:41.294Z,19.00
2018-03-27T14:54:08.817Z,19.23
2018-03-27T14:56:37.093Z,19.17
2018-03-27T14:59:05.381Z,19.07
2018-03-27T15:01:32.887Z,19.70
2018-03-27T15:04:00.420Z,20.67
2018-03-27T15:06:27.910Z,20.20
2018-03-27T15:08:55.445Z,21.10
2018-03-27T15:11:22.968Z,20.97
2018-03-27T15:13:51.290Z,20.20
2018-03-27T15:16:18.828Z,20.63
2018-03-27T15:18:46.342Z,18.73
2018-03-27T15:21:14.628Z,18.90
2018-03-27T15:23:42.898Z,19.47
2018-03-27T15:26:11.205Z,20.17
2018-03-27T15:28:38.724Z,17.67
2018-03-27T15:31:06.223Z,18.07
2018-03-27T15:33:33.775Z,16.37
2018-03-27T15:36:01.260Z,18.47
2018-03-27T15:38:28.802Z,18.70
2018-03-27T15:40:56.303Z,18.40
2018-03-27T15:43:23.812Z,18.97
2018-03-27T15:45:51.342Z,15.47
2018-03-27T15:48:19.635Z,14.20
2018-03-27T15:50:47.151Z,13.57
2018-03-27T15:53:14.664Z,13.20
2018-03-27T15:55:42.231Z,13.87
2018-03-27T15:58:09.726Z,15.40
2018-03-27T16:00:37.235Z,14.23
2018-03-27T16:03:04.793Z,15.60
2018-03-27T16:05:32.361Z,17.60
2018-03-27T16:07:59.874Z,21.20
2018-03-27T16:10:27.406Z,25.73
2018-03-27T16:12:54.927Z,19.50
2018-03-27T16:15:22.453Z,17.70
2018-03-27T16:17:50.024Z,16.60
2018-03-27T16:20:18.324Z,17.87
2018-03-27T16:22:45.870Z,18.27
2018-03-27T16:25:14.135Z,18.57
2018-03-27T16:27:42.415Z,17.57
2018-03-27T16:30:10.710Z,17.53
2018-03-27T16:32:38.218Z,18.70
2018-03-27T16:35:05.748Z,17.53
2018-03-27T16:37:33.261Z,20.77
2018-03-27T16:40:00.779Z,22.67
2018-03-27T16:42:28.290Z,17.43
2018-03-27T16:44:56.600Z,19.67
2018-03-27T16:47:24.104Z,18.90
2018-03-27T16:49:51.663Z,19.80
2018-03-27T16:52:19.142Z,19.50
2018-03-27T16:54:47.454Z,24.37
2018-03-27T16:57:15.023Z,22.00
2018-03-27T16:59:42.551Z,21.40
2018-03-27T17:02:10.079Z,22.33
2018-03-27T17:04:37.611Z,22.80
2018-03-27T17:07:05.142Z,18.57
2018-03-27T17:09:32.694Z,21.73
2018-03-27T17:12:00.205Z,25.73
2018-03-27T17:14:27.704Z,19.10
2018-03-27T17:16:55.225Z,20.23
2018-03-27T17:19:22.738Z,19.30
2018-03-27T17:21:50.320Z,23.83
2018-03-27T17:24:17.825Z,23.37
2018-03-27T17:26:46.135Z,24.93
2018-03-27T17:29:13.661Z,26.40
2018-03-27T17:31:41.977Z,32.07
2018-03-27T17:34:09.511Z,27.67
2018-03-27T17:36:37.094Z,23.13
2018-03-27T17:39:04.656Z,27.23
2018-03-27T17:41:32.474Z,20.40
2018-03-27T17:44:00.951Z,22.23
2018-03-27T17:46:29.444Z,21.87
2018-03-27T17:48:57.724Z,20.80
2018-03-27T17:51:26.111Z,19.73
2018-03-27T17:53:53.601Z,22.10
2018-03-27T17:56:21.231Z,20.90
2018-03-27T17:58:48.828Z,21.90
2018-03-27T18:01:16.332Z,21.20
2018-03-27T18:03:44.611Z,20.00
2018-03-27T18:06:12.878Z,20.27
2018-03-27T18:08:41.229Z,26.47
2018-03-27T18:11:08.837Z,28.83
2018-03-27T18:13:36.353Z,24.10
2018-03-27T18:16:03.888Z,23.27
2018-03-27T18:18:31.393Z,21.60
2018-03-27T18:20:59.675Z,22.43
2018-03-27T18:23:27.979Z,21.53
2018-03-27T18:25:55.678Z,24.73
2018-03-27T18:28:23.218Z,25.20
2018-03-27T18:30:50.859Z,21.87
2018-03-27T18:33:18.624Z,23.23
2018-03-27T18:35:46.499Z,22.53
2018-03-27T18:38:14.069Z,20.90
2018-03-27T18:40:41.639Z,21.07
2018-03-27T18:43:09.337Z,21.50
2018-03-27T18:45:37.060Z,22.40
2018-03-27T18:48:04.654Z,23.03
2018-03-27T18:50:32.235Z,23.10
2018-03-27T18:53:00.641Z,26.20
2018-03-27T18:55:28.399Z,26.40
2018-03-27T18:57:56.245Z,23.27
2018-03-27T19:00:23.819Z,23.77
2018-03-27T19:02:51.371Z,23.17
2018-03-27T19:05:19.085Z,24.48
2018-03-27T19:07:46.861Z,20.93
2018-03-27T19:10:14.430Z,22.00
2018-03-27T19:12:41.987Z,23.20
2018-03-27T19:15:09.615Z,25.83
2018-03-27T19:17:37.328Z,25.15
2018-03-27T19:20:05.585Z,25.15
2018-03-27T19:22:33.898Z,24.80
2018-03-27T19:25:01.640Z,26.35
2018-03-27T19:27:30.127Z,25.83
2018-03-27T19:29:58.391Z,25.83
2018-03-27T19:32:26.694Z,25.50
2018-03-27T19:34:54.251Z,24.93
2018-03-27T19:37:21.988Z,26.25
2018-03-27T19:39:50.287Z,28.23
2018-03-27T19:42:18.853Z,25.57
2018-03-27T19:44:46.476Z,26.43
2018-03-27T19:47:14.142Z,25.52
2018-03-27T19:49:41.944Z,24.48
2018-03-27T19:52:09.757Z,24.70
2018-03-27T19:54:37.313Z,25.25
2018-03-27T19:57:04.868Z,23.58
2018-03-27T19:59:32.610Z,24.48
2018-03-27T20:02:00.439Z,26.87
2018-03-27T20:04:28.018Z,23.73
2018-03-27T20:06:55.581Z,25.15
2018-03-27T20:09:23.196Z,26.73
2018-03-27T20:11:50.734Z,45.38
2018-03-27T20:14:18.562Z,29.23
2018-03-27T20:16:46.081Z,25.70
2018-03-27T20:19:13.591Z,35.97
2018-03-27T20:21:41.353Z,24.63
2018-03-27T20:24:08.912Z,25.42
2018-03-27T20:26:37.231Z,25.73
2018-03-27T20:29:04.738Z,22.83
2018-03-27T20:31:33.066Z,25.35
2018-03-27T20:34:00.623Z,25.23
2018-03-27T20:36:28.510Z,24.80
2018-03-27T20:38:56.033Z,26.55
2018-03-27T20:41:23.559Z,22.98
2018-03-27T20:43:51.851Z,28.58
2018-03-27T20:46:20.267Z,48.92
2018-03-27T20:48:48.001Z,24.48
2018-03-27T20:51:15.515Z,33.75
2018-03-27T20:53:43.562Z,22.62
2018-03-27T20:56:11.328Z,27.50
2018-03-27T20:58:39.148Z,28.10
2018-03-27T21:01:07.993Z,25.60
2018-03-27T21:03:35.612Z,24.65
2018-03-27T21:06:03.206Z,26.73
2018-03-27T21:08:30.881Z,24.45
2018-03-27T21:10:58.447Z,24.75
2018-03-27T21:13:26.248Z,23.05
2018-03-27T21:15:53.773Z,22.83
2018-03-27T21:18:21.440Z,26.77
2018-03-27T21:20:49.746Z,26.30
2018-03-27T21:23:18.166Z,24.98
2018-03-27T21:25:45.768Z,24.87
2018-03-27T21:28:14.073Z,26.63
2018-03-27T21:30:41.604Z,22.90
2018-03-27T21:33:09.883Z,24.63
2018-03-27T21:35:37.443Z,21.77
2018-03-27T21:38:05.821Z,22.17
2018-03-27T21:40:34.255Z,22.95
2018-03-27T21:43:01.828Z,19.27
2018-03-27T21:45:29.345Z,21.27
2018-03-27T21:47:56.918Z,19.43
2018-03-27T21:50:24.552Z,18.55
2018-03-27T21:52:52.079Z,23.20
2018-03-27T21:55:19.613Z,20.27
2018-03-27T21:57:47.187Z,18.33
2018-03-27T22:00:14.810Z,17.25
2018-03-27T22:02:42.491Z,18.55
2018-03-27T22:05:10.006Z,17.75
2018-03-27T22:07:38.286Z,16.37
2018-03-27T22:10:06.589Z,15.60
2018-03-27T22:12:34.137Z,16.23
2018-03-27T22:15:01.661Z,14.90
2018-03-27T22:17:29.175Z,15.30
2018-03-27T22:19:56.675Z,15.98
2018-03-27T22:22:24.206Z,15.40
2018-03-27T22:24:51.706Z,15.70
2018-03-27T22:27:19.246Z,16.15
2018-03-27T22:29:46.772Z,16.90
2018-03-27T22:32:14.278Z,14.50
2018-03-27T22:34:41.807Z,14.80
2018-03-27T22:37:09.333Z,16.45
2018-03-27T22:39:36.880Z,14.40
2018-03-27T22:42:04.383Z,17.25
2018-03-27T22:44:31.895Z,15.55
2018-03-27T22:46:59.418Z,17.15
2018-03-27T22:49:26.942Z,15.18
2018-03-27T22:51:54.436Z,14.38
2018-03-27T22:54:21.978Z,15.30
2018-03-27T22:56:49.482Z,16.40
2018-03-27T22:59:17.745Z,15.30
2018-03-27T23:01:46.067Z,17.70
2018-03-27T23:04:13.578Z,15.63
2018-03-27T23:06:41.898Z,17.35
2018-03-27T23:09:09.425Z,16.55
2018-03-27T23:11:37.698Z,18.02
2018-03-27T23:14:05.990Z,15.52
2018-03-27T23:16:33.484Z,16.35
2018-03-27T23:19:01.015Z,15.60
2018-03-27T23:21:28.536Z,15.48
2018-03-27T23:23:56.805Z,15.35
2018-03-27T23:26:24.341Z,16.12
2018-03-27T23:28:51.859Z,15.73
2018-03-27T23:31:19.399Z,17.10
2018-03-27T23:33:47.685Z,16.98
2018-03-27T23:36:15.965Z,16.90
2018-03-27T23:38:44.238Z,16.15
2018-03-27T23:41:12.514Z,15.07
2018-03-27T23:43:40.800Z,15.10
2018-03-27T23:46:08.310Z,14.75
2018-03-27T23:48:35.824Z,15.18
2018-03-27T23:51:03.365Z,14.98
2018-03-27T23:53:31.633Z,15.02
2018-03-27T23:55:59.958Z,15.90
2018-03-27T23:58:27.454Z,15.50
